createdAt,value
2018-10-05T00:01:36.946Z,11.77
2018-10-05T00:04:39.926Z,12.00
2018-10-05T00:07:42.868Z,11.97
2018-10-05T00:10:45.961Z,11.93
2018-10-05T00:13:49.180Z,11.91
2018-10-05T00:16:52.129Z,11.81
2018-10-05T00:19:55.047Z,11.79
2018-10-05T00:22:58.010Z,11.73
2018-10-05T00:26:01.015Z,11.63
2018-10-05T00:29:04.152Z,11.79
2018-10-05T00:32:07.105Z,11.73
2018-10-05T00:35:10.077Z,11.61
2018-10-05T00:38:13.063Z,11.58
2018-10-05T00:41:16.056Z,11.58
2018-10-05T00:44:19.058Z,11.61
2018-10-05T00:47:21.977Z,11.63
2018-10-05T00:50:24.969Z,11.59
2018-10-05T00:53:27.939Z,11.65
2018-10-05T00:56:30.936Z,11.53
2018-10-05T00:59:33.942Z,11.62
2018-10-05T01:02:37.137Z,11.41
2018-10-05T01:05:40.157Z,11.54
2018-10-05T01:08:43.150Z,11.48
2018-10-05T01:11:46.171Z,11.40
2018-10-05T01:14:49.217Z,11.41
2018-10-05T01:17:52.213Z,11.43
2018-10-05T01:20:55.194Z,11.37
2018-10-05T01:23:58.205Z,11.35
2018-10-05T01:27:01.170Z,11.44
2018-10-05T01:30:04.286Z,11.44
2018-10-05T01:33:07.285Z,11.47
2018-10-05T01:36:10.310Z,11.36
2018-10-05T01:39:13.281Z,11.41
2018-10-05T01:42:16.276Z,11.39
2018-10-05T01:45:19.244Z,11.39
2018-10-05T01:48:22.195Z,11.30
2018-10-05T01:51:35.417Z,11.33
2018-10-05T01:54:38.405Z,11.33
2018-10-05T01:57:41.521Z,11.29
2018-10-05T02:00:44.446Z,11.41
2018-10-05T02:03:47.370Z,11.46
2018-10-05T02:06:50.352Z,11.51
2018-10-05T02:09:53.385Z,11.46
2018-10-05T02:12:56.457Z,11.48
2018-10-05T02:15:59.436Z,11.38
2018-10-05T02:19:02.444Z,11.19
2018-10-05T02:22:05.381Z,11.34
2018-10-05T02:25:08.421Z,11.36
2018-10-05T02:28:11.407Z,11.36
2018-10-05T02:31:14.378Z,11.41
2018-10-05T02:34:17.324Z,11.35
2018-10-05T02:37:20.278Z,11.41
2018-10-05T02:40:23.284Z,11.49
2018-10-05T02:43:26.260Z,11.41
2018-10-05T02:46:29.220Z,11.47
2018-10-05T02:49:32.145Z,11.29
2018-10-05T02:52:35.040Z,11.32
2018-10-05T02:55:38.009Z,11.19
2018-10-05T02:58:40.930Z,11.21
2018-10-05T03:02:01.196Z,11.11
2018-10-05T03:05:04.196Z,11.22
2018-10-05T03:08:07.121Z,10.99
2018-10-05T03:11:10.045Z,11.03
2018-10-05T03:14:12.941Z,11.14
2018-10-05T03:17:15.873Z,11.04
2018-10-05T03:20:18.826Z,11.14
2018-10-05T03:23:21.772Z,10.97
2018-10-05T03:26:24.772Z,10.94
2018-10-05T03:29:27.770Z,10.98
2018-10-05T03:32:30.715Z,11.02
2018-10-05T03:35:33.652Z,10.94
2018-10-05T03:38:36.546Z,10.90
2018-10-05T03:41:40.316Z,10.80
2018-10-05T03:44:43.248Z,10.80
2018-10-05T03:47:46.122Z,10.90
2018-10-05T03:50:49.048Z,10.85
2018-10-05T03:53:52.038Z,10.78
2018-10-05T03:56:55.078Z,10.82
2018-10-05T03:59:58.036Z,10.73
2018-10-05T04:03:01.178Z,10.62
2018-10-05T04:06:04.086Z,10.61
2018-10-05T04:09:08.717Z,10.60
2018-10-05T04:12:11.662Z,10.58
2018-10-05T04:15:14.610Z,10.65
2018-10-05T04:18:17.552Z,10.60
2018-10-05T04:21:20.433Z,10.76
2018-10-05T04:24:23.374Z,10.76
2018-10-05T04:27:26.307Z,10.71
2018-10-05T04:30:29.247Z,10.79
2018-10-05T04:33:32.241Z,10.68
2018-10-05T04:36:35.154Z,10.78
2018-10-05T04:39:38.097Z,10.62
2018-10-05T04:42:40.993Z,10.69
2018-10-05T04:45:43.957Z,10.63
2018-10-05T04:48:46.893Z,10.58
2018-10-05T04:51:49.813Z,10.67
2018-10-05T04:54:52.682Z,10.77
2018-10-05T04:57:55.630Z,10.64
2018-10-05T05:00:58.586Z,10.49
2018-10-05T05:04:01.543Z,10.62
2018-10-05T05:07:04.653Z,10.55
2018-10-05T05:10:07.621Z,10.45
2018-10-05T05:13:10.486Z,10.49
2018-10-05T05:16:13.431Z,10.57
2018-10-05T05:19:16.348Z,10.57
2018-10-05T05:22:19.274Z,10.43
2018-10-05T05:25:22.215Z,10.58
2018-10-05T05:28:25.177Z,10.48
2018-10-05T05:31:28.826Z,10.36
2018-10-05T05:34:31.790Z,10.41
2018-10-05T05:37:34.684Z,10.39
2018-10-05T05:40:37.601Z,10.42
2018-10-05T05:43:40.505Z,10.42
2018-10-05T05:46:43.978Z,10.50
2018-10-05T05:49:46.866Z,10.56
2018-10-05T05:52:49.824Z,10.57
2018-10-05T05:55:52.800Z,10.53
2018-10-05T05:58:55.788Z,10.39
2018-10-05T06:01:58.714Z,10.31
2018-10-05T06:05:01.646Z,10.30
2018-10-05T06:08:04.684Z,10.48
2018-10-05T06:11:07.713Z,10.33
2018-10-05T06:14:10.709Z,10.24
2018-10-05T06:17:13.634Z,10.31
2018-10-05T06:20:16.603Z,10.27
2018-10-05T06:23:19.674Z,10.29
2018-10-05T06:26:22.629Z,10.32
2018-10-05T06:29:25.545Z,10.30
2018-10-05T06:32:28.469Z,10.49
2018-10-05T06:35:31.395Z,10.37
2018-10-05T06:38:34.376Z,10.34
2018-10-05T06:41:37.533Z,10.37
2018-10-05T06:44:40.441Z,10.42
2018-10-05T06:47:43.394Z,10.58
2018-10-05T06:50:46.377Z,10.54
2018-10-05T06:53:49.363Z,10.53
2018-10-05T06:56:52.334Z,14.59
2018-10-05T06:59:55.250Z,12.42
2018-10-05T07:02:58.193Z,11.45
2018-10-05T07:06:01.134Z,10.97
2018-10-05T07:09:05.487Z,10.85
2018-10-05T07:12:08.511Z,10.83
2018-10-05T07:15:11.525Z,10.83
2018-10-05T07:18:14.461Z,10.77
2018-10-05T07:21:17.443Z,10.91
2018-10-05T07:24:20.345Z,10.78
2018-10-05T07:27:23.289Z,10.80
2018-10-05T07:30:26.206Z,10.82
2018-10-05T07:33:29.143Z,10.91
2018-10-05T07:36:32.092Z,10.82
2018-10-05T07:39:35.085Z,10.81
2018-10-05T07:42:38.021Z,10.85
2018-10-05T07:45:40.972Z,11.05
2018-10-05T07:48:43.897Z,11.24
2018-10-05T07:51:46.903Z,11.35
2018-10-05T07:54:49.824Z,11.37
2018-10-05T07:57:52.748Z,11.46
2018-10-05T08:00:55.590Z,11.48
2018-10-05T08:03:58.553Z,11.53
2018-10-05T08:07:01.537Z,11.61
2018-10-05T08:10:04.674Z,11.74
2018-10-05T08:13:07.597Z,11.68
2018-10-05T08:16:10.523Z,11.75
2018-10-05T08:19:13.489Z,11.81
2018-10-05T08:22:16.434Z,11.73
2018-10-05T08:25:19.357Z,11.76
2018-10-05T08:28:22.261Z,11.82
2018-10-05T08:31:25.268Z,12.00
2018-10-05T08:34:28.261Z,12.16
2018-10-05T08:37:31.098Z,12.27
2018-10-05T08:40:34.037Z,12.25
2018-10-05T08:43:36.965Z,12.27
2018-10-05T08:46:39.960Z,12.36
2018-10-05T08:49:42.927Z,12.42
2018-10-05T08:52:45.880Z,12.47
2018-10-05T08:55:49.044Z,12.57
2018-10-05T08:58:51.926Z,12.63
2018-10-05T09:01:54.819Z,12.69
2018-10-05T09:04:57.728Z,12.68
2018-10-05T09:08:00.647Z,12.83
2018-10-05T09:11:03.574Z,12.95
2018-10-05T09:14:06.770Z,13.02
2018-10-05T09:17:09.745Z,12.99
2018-10-05T09:20:12.602Z,13.10
2018-10-05T09:23:15.509Z,13.31
2018-10-05T09:26:18.428Z,14.02
2018-10-05T09:29:21.329Z,14.29
2018-10-05T09:32:24.303Z,14.46
2018-10-05T09:35:27.280Z,14.90
2018-10-05T09:38:30.177Z,14.77
2018-10-05T09:41:33.108Z,14.92
2018-10-05T09:44:36.025Z,14.68
2018-10-05T09:47:39.031Z,15.02
2018-10-05T09:50:42.142Z,15.07
2018-10-05T09:53:45.170Z,15.21
2018-10-05T09:56:48.080Z,15.45
2018-10-05T09:59:51.046Z,15.54
2018-10-05T10:03:03.472Z,15.67
2018-10-05T10:06:06.905Z,15.72
2018-10-05T10:09:09.874Z,16.28
2018-10-05T10:12:12.941Z,16.07
2018-10-05T10:15:15.954Z,16.30
2018-10-05T10:18:18.973Z,16.26
2018-10-05T10:21:21.908Z,16.78
2018-10-05T10:24:24.789Z,17.14
2018-10-05T10:27:27.781Z,17.16
2018-10-05T10:30:30.754Z,17.44
2018-10-05T10:33:33.677Z,17.88
2018-10-05T10:36:36.749Z,17.70
2018-10-05T10:39:39.697Z,17.39
2018-10-05T10:42:42.662Z,18.34
2018-10-05T10:45:45.580Z,18.68
2018-10-05T10:48:48.488Z,18.86
2018-10-05T10:51:51.421Z,18.32
2018-10-05T10:54:54.488Z,18.56
2018-10-05T10:57:57.800Z,18.75
2018-10-05T11:01:00.747Z,18.41
2018-10-05T11:04:04.668Z,19.05
2018-10-05T11:07:07.768Z,18.68
2018-10-05T11:10:11.513Z,19.64
2018-10-05T11:13:15.809Z,18.84
2018-10-05T11:16:19.086Z,19.96
2018-10-05T11:19:23.525Z,20.07
2018-10-05T11:22:26.622Z,20.44
2018-10-05T11:25:30.045Z,19.32
2018-10-05T11:28:34.554Z,20.38
2018-10-05T11:32:41.136Z,19.43
2018-10-05T11:35:44.623Z,19.12
2018-10-05T11:38:48.402Z,19.91
2018-10-05T11:41:52.740Z,19.76
2018-10-05T11:44:56.029Z,19.88
2018-10-05T11:47:59.703Z,20.36
2018-10-05T11:51:03.249Z,20.49
2018-10-05T11:54:06.608Z,20.70
2018-10-05T11:57:09.597Z,20.41
2018-10-05T12:00:15.957Z,19.38
2018-10-05T12:03:18.903Z,20.20
2018-10-05T12:06:21.851Z,19.85
2018-10-05T12:09:24.838Z,20.42
2018-10-05T12:12:27.713Z,20.99
2018-10-05T12:15:30.648Z,20.67
2018-10-05T12:18:33.629Z,20.80
2018-10-05T12:21:36.574Z,20.43
2018-10-05T12:24:39.485Z,20.89
2018-10-05T12:27:42.410Z,21.12
2018-10-05T12:30:45.413Z,21.38
2018-10-05T12:33:48.455Z,21.55
2018-10-05T12:36:51.429Z,21.21
2018-10-05T12:39:54.369Z,21.58
2018-10-05T12:42:57.349Z,21.61
2018-10-05T12:46:00.418Z,21.71
2018-10-05T12:49:10.106Z,21.04
2018-10-05T12:52:13.060Z,21.56
2018-10-05T12:55:15.994Z,21.77
2018-10-05T12:58:19.374Z,22.04
2018-10-05T13:01:22.218Z,22.02
2018-10-05T13:04:25.206Z,22.05
2018-10-05T13:07:28.199Z,22.10
2018-10-05T13:10:31.117Z,21.07
2018-10-05T13:13:34.098Z,21.36
2018-10-05T13:16:37.057Z,22.23
2018-10-05T13:19:39.987Z,21.27
2018-10-05T13:22:42.965Z,21.99
2018-10-05T13:25:45.929Z,21.99
2018-10-05T13:28:48.847Z,22.08
2018-10-05T13:31:51.770Z,22.65
2018-10-05T13:34:54.754Z,21.25
2018-10-05T13:37:57.680Z,21.72
2018-10-05T13:41:00.662Z,22.02
2018-10-05T13:44:03.617Z,21.46
2018-10-05T13:47:06.573Z,21.39
2018-10-05T13:50:11.598Z,21.43
2018-10-05T13:53:14.545Z,22.07
2018-10-05T13:56:17.482Z,22.58
2018-10-05T13:59:20.540Z,22.82
2018-10-05T14:02:23.503Z,22.24
2018-10-05T14:05:26.405Z,22.57
2018-10-05T14:08:29.302Z,21.89
2018-10-05T14:11:32.232Z,22.42
2018-10-05T14:14:35.103Z,22.60
2018-10-05T14:17:38.085Z,22.49
2018-10-05T14:20:40.999Z,22.37
2018-10-05T14:23:43.869Z,22.39
2018-10-05T14:26:46.799Z,22.50
2018-10-05T14:29:49.733Z,22.63
2018-10-05T14:32:52.634Z,21.94
2018-10-05T14:35:55.541Z,22.23
2018-10-05T14:38:58.549Z,22.36
2018-10-05T14:42:01.510Z,22.71
2018-10-05T14:45:04.601Z,22.05
2018-10-05T14:48:07.621Z,21.68
2018-10-05T14:51:10.552Z,21.91
2018-10-05T14:54:13.461Z,21.80
2018-10-05T14:57:16.429Z,21.99
2018-10-05T15:00:19.353Z,22.20
2018-10-05T15:03:22.372Z,21.76
2018-10-05T15:06:25.349Z,21.44
2018-10-05T15:09:28.354Z,21.20
2018-10-05T15:12:31.246Z,21.01
2018-10-05T15:15:34.223Z,20.77
2018-10-05T15:18:37.166Z,20.83
2018-10-05T15:21:40.098Z,20.82
2018-10-05T15:24:43.065Z,20.39
2018-10-05T15:27:46.018Z,19.70
2018-10-05T15:30:48.943Z,19.22
2018-10-05T15:33:51.810Z,19.03
2018-10-05T15:36:54.793Z,19.36
2018-10-05T15:39:57.725Z,18.81
2018-10-05T15:43:00.802Z,18.43
2018-10-05T15:46:07.129Z,18.28
2018-10-05T15:49:10.042Z,18.13
2018-10-05T15:52:13.144Z,18.04
2018-10-05T15:55:16.021Z,17.97
2018-10-05T15:58:18.937Z,17.79
2018-10-05T16:01:21.844Z,17.70
2018-10-05T16:04:25.102Z,17.57
2018-10-05T16:07:28.022Z,17.46
2018-10-05T16:10:30.943Z,17.40
2018-10-05T16:13:33.858Z,17.31
2018-10-05T16:16:36.806Z,17.29
2018-10-05T16:19:39.842Z,17.21
2018-10-05T16:22:42.840Z,17.17
2018-10-05T16:25:45.821Z,17.12
2018-10-05T16:28:48.817Z,17.08
2018-10-05T16:31:51.787Z,16.91
2018-10-05T16:34:54.781Z,16.97
2018-10-05T16:37:57.927Z,16.95
2018-10-05T16:41:00.915Z,16.81
2018-10-05T16:44:04.060Z,16.79
2018-10-05T16:47:07.100Z,16.76
2018-10-05T16:50:10.059Z,16.64
2018-10-05T16:53:13.155Z,16.64
2018-10-05T16:56:16.818Z,16.67
2018-10-05T16:59:19.746Z,16.63
2018-10-05T17:02:23.492Z,16.59
2018-10-05T17:05:26.415Z,16.51
2018-10-05T17:08:31.306Z,16.41
2018-10-05T17:11:36.034Z,16.41
2018-10-05T17:14:39.411Z,16.33
2018-10-05T17:17:43.330Z,16.29
2018-10-05T17:20:47.494Z,16.19
2018-10-05T17:23:50.778Z,16.14
2018-10-05T17:26:53.759Z,16.22
2018-10-05T17:29:56.935Z,16.06
2018-10-05T17:33:00.992Z,16.22
2018-10-05T17:36:04.119Z,16.25
2018-10-05T17:39:09.749Z,16.21
2018-10-05T17:42:13.353Z,16.32
2018-10-05T17:45:16.773Z,16.24
2018-10-05T17:48:20.033Z,16.08
2018-10-05T17:51:23.139Z,16.10
2018-10-05T17:54:26.325Z,16.17
2018-10-05T17:57:29.593Z,16.10
2018-10-05T18:00:32.699Z,16.16
2018-10-05T18:03:36.406Z,16.18
2018-10-05T18:06:39.956Z,16.16
2018-10-05T18:09:43.440Z,16.21
2018-10-05T18:12:47.033Z,16.16
2018-10-05T18:15:50.698Z,16.20
2018-10-05T18:18:53.641Z,16.20
2018-10-05T18:21:56.634Z,16.24
2018-10-05T18:25:00.229Z,16.22
2018-10-05T18:28:03.612Z,16.07
2018-10-05T18:31:06.725Z,16.15
2018-10-05T18:34:09.821Z,16.10
2018-10-05T18:37:12.650Z,16.06
2018-10-05T18:40:15.790Z,16.07
2018-10-05T18:43:18.885Z,16.14
2018-10-05T18:46:21.868Z,16.12
2018-10-05T18:49:24.846Z,15.98
2018-10-05T18:52:27.939Z,16.14
2018-10-05T18:55:31.127Z,15.99
2018-10-05T18:58:34.291Z,15.89
2018-10-05T19:01:37.281Z,15.89
2018-10-05T19:04:40.385Z,15.86
2018-10-05T19:07:43.542Z,15.97
2018-10-05T19:10:46.725Z,15.80
2018-10-05T19:13:50.299Z,15.96
2018-10-05T19:16:53.269Z,15.87
2018-10-05T19:19:56.228Z,15.91
2018-10-05T19:22:59.300Z,16.10
2018-10-05T19:26:03.532Z,16.10
2018-10-05T19:29:06.664Z,16.19
2018-10-05T19:32:09.610Z,16.35
2018-10-05T19:35:12.548Z,16.26
2018-10-05T19:38:15.645Z,16.29
2018-10-05T19:41:18.677Z,16.71
2018-10-05T19:44:21.586Z,16.69
2018-10-05T19:47:24.761Z,16.53
2018-10-05T19:50:27.941Z,16.62
2018-10-05T19:53:30.915Z,16.58
2018-10-05T19:56:33.925Z,16.72
2018-10-05T19:59:36.893Z,16.77
2018-10-05T20:02:39.851Z,16.80
2018-10-05T20:05:42.721Z,16.93
2018-10-05T20:08:46.075Z,17.01
2018-10-05T20:11:49.756Z,17.01
2018-10-05T20:18:15.221Z,16.99
2018-10-05T20:21:18.520Z,16.95
2018-10-05T20:24:21.694Z,16.95
2018-10-05T20:27:25.407Z,16.89
2018-10-05T20:30:28.701Z,17.04
2018-10-05T20:33:32.159Z,17.02
2018-10-05T20:36:35.634Z,16.94
2018-10-05T20:39:38.910Z,16.90
2018-10-05T20:42:42.271Z,17.07
2018-10-05T20:45:45.518Z,17.03
2018-10-05T20:48:48.693Z,17.01
2018-10-05T20:51:51.811Z,16.99
2018-10-05T20:54:55.059Z,16.95
2018-10-05T20:57:58.681Z,17.04
2018-10-05T21:01:02.307Z,17.05
2018-10-05T21:04:05.509Z,17.06
2018-10-05T21:07:08.625Z,16.99
2018-10-05T21:10:11.898Z,16.87
2018-10-05T21:13:14.844Z,16.81
2018-10-05T21:16:17.794Z,16.71
2018-10-05T21:19:20.693Z,16.74
2018-10-05T21:22:23.694Z,16.72
2018-10-05T21:25:26.657Z,16.78
2018-10-05T21:28:29.571Z,16.79
2018-10-05T21:31:32.613Z,16.73
2018-10-05T21:34:35.535Z,16.66
2018-10-05T21:37:38.546Z,16.76
2018-10-05T21:40:41.683Z,16.57
2018-10-05T21:43:44.647Z,16.53
2018-10-05T21:46:47.605Z,16.56
2018-10-05T21:49:50.627Z,16.63
2018-10-05T21:52:53.522Z,16.58
2018-10-05T21:55:56.453Z,16.61
2018-10-05T21:58:59.430Z,16.54
2018-10-05T22:02:02.392Z,16.74
2018-10-05T22:05:06.402Z,16.61
2018-10-05T22:08:09.348Z,16.74
2018-10-05T22:11:12.682Z,16.79
2018-10-05T22:14:15.602Z,16.67
2018-10-05T22:17:18.602Z,16.56
2018-10-05T22:20:21.782Z,16.35
2018-10-05T22:23:24.714Z,16.44
2018-10-05T22:26:27.746Z,16.49
2018-10-05T22:29:30.711Z,16.54
2018-10-05T22:32:33.634Z,16.39
2018-10-05T22:35:36.601Z,16.39
2018-10-05T22:38:39.524Z,16.42
2018-10-05T22:41:42.517Z,16.37
2018-10-05T22:44:45.498Z,16.24
2018-10-05T22:47:48.437Z,16.18
2018-10-05T22:50:51.307Z,16.22
2018-10-05T22:53:54.206Z,16.22
2018-10-05T22:56:57.102Z,16.22
2018-10-05T23:00:00.090Z,16.19
2018-10-05T23:03:03.088Z,16.16
2018-10-05T23:06:06.152Z,16.13
2018-10-05T23:09:09.473Z,16.15
2018-10-05T23:12:12.404Z,16.08
2018-10-05T23:15:15.369Z,16.01
2018-10-05T23:18:18.286Z,15.95
2018-10-05T23:21:21.273Z,15.95
2018-10-05T23:24:24.207Z,16.03
2018-10-05T23:27:27.311Z,15.89
2018-10-05T23:30:30.257Z,15.74
2018-10-05T23:33:33.192Z,15.80
2018-10-05T23:36:36.102Z,15.92
2018-10-05T23:39:39.104Z,15.71
2018-10-05T23:42:42.041Z,15.79
2018-10-05T23:45:44.969Z,15.73
2018-10-05T23:48:47.888Z,15.73
2018-10-05T23:51:50.837Z,15.64
2018-10-05T23:54:53.733Z,15.78
2018-10-05T23:57:56.685Z,15.77
